sensor_id;sensor_type;location;lat;lon;timestamp;temperature;humidity
74384;DHT22;62824;52.994;-3.936;2023-05-02T00:02:17;13.10;99.90
74384;DHT22;62824;52.994;-3.936;2023-05-02T00:04:42;12.90;99.90
74384;DHT22;62824;52.994;-3.936;2023-05-02T00:07:09;12.70;99.90
74384;DHT22;62824;52.994;-3.936;2023-05-02T00:09:35;12.60;99.90
74384;DHT22;62824;52.994;-3.936;2023-05-02T00:12:01;12.40;99.90
74384;DHT22;62824;52.994;-3.936;2023-05-02T00:14:28;12.50;99.90
74384;DHT22;62824;52.994;-3.936;2023-05-02T00:16:53;12.60;99.90
74384;DHT22;62824;52.994;-3.936;2023-05-02T00:19:20;12.60;99.90
74384;DHT22;62824;52.994;-3.936;2023-05-02T00:21:48;12.70;99.90
74384;DHT22;62824;52.994;-3.936;2023-05-02T00:24:16;12.80;99.90
74384;DHT22;62824;52.994;-3.936;2023-05-02T00:26:41;12.90;99.90
74384;DHT22;62824;52.994;-3.936;2023-05-02T00:29:07;13.00;99.90
74384;DHT22;62824;52.994;-3.936;2023-05-02T00:31:33;13.00;99.90
74384;DHT22;62824;52.994;-3.936;2023-05-02T00:34:00;13.10;99.90
74384;DHT22;62824;52.994;-3.936;2023-05-02T00:36:25;13.10;99.90
74384;DHT22;62824;52.994;-3.936;2023-05-02T00:38:52;13.00;99.90
74384;DHT22;62824;52.994;-3.936;2023-05-02T00:41:18;12.90;99.90
74384;DHT22;62824;52.994;-3.936;2023-05-02T00:43:43;12.90;99.90
74384;DHT22;62824;52.994;-3.936;2023-05-02T00:46:09;12.90;99.90
74384;DHT22;62824;52.994;-3.936;2023-05-02T00:48:37;13.00;99.90
74384;DHT22;62824;52.994;-3.936;2023-05-02T00:51:04;13.00;99.90
74384;DHT22;62824;52.994;-3.936;2023-05-02T00:53:30;12.90;99.90
74384;DHT22;62824;52.994;-3.936;2023-05-02T00:56:01;12.60;99.90
74384;DHT22;62824;52.994;-3.936;2023-05-02T00:58:27;12.60;99.90
74384;DHT22;62824;52.994;-3.936;2023-05-02T01:06:52;12.70;99.90
74384;DHT22;62824;52.994;-3.936;2023-05-02T01:09:43;12.90;99.90
74384;DHT22;62824;52.994;-3.936;2023-05-02T01:14:53;13.00;99.90
74384;DHT22;62824;52.994;-3.936;2023-05-02T01:17:26;13.00;99.90
74384;DHT22;62824;52.994;-3.936;2023-05-02T01:19:56;13.00;99.90
74384;DHT22;62824;52.994;-3.936;2023-05-02T01:22:24;13.00;99.90
74384;DHT22;62824;52.994;-3.936;2023-05-02T01:27:56;12.90;99.90
74384;DHT22;62824;52.994;-3.936;2023-05-02T01:30:26;12.90;99.90
74384;DHT22;62824;52.994;-3.936;2023-05-02T01:32:56;12.70;99.90
74384;DHT22;62824;52.994;-3.936;2023-05-02T01:35:23;12.60;99.90
74384;DHT22;62824;52.994;-3.936;2023-05-02T01:37:51;12.60;99.90
74384;DHT22;62824;52.994;-3.936;2023-05-02T01:40:19;12.50;99.90
74384;DHT22;62824;52.994;-3.936;2023-05-02T01:42:49;12.50;99.90
74384;DHT22;62824;52.994;-3.936;2023-05-02T01:45:15;12.70;99.90
74384;DHT22;62824;52.994;-3.936;2023-05-02T01:47:43;12.80;99.90
74384;DHT22;62824;52.994;-3.936;2023-05-02T01:50:12;12.90;99.90
74384;DHT22;62824;52.994;-3.936;2023-05-02T01:52:41;12.90;99.90
74384;DHT22;62824;52.994;-3.936;2023-05-02T01:55:11;12.90;99.90
74384;DHT22;62824;52.994;-3.936;2023-05-02T01:57:39;12.90;99.90
74384;DHT22;62824;52.994;-3.936;2023-05-02T02:00:07;12.90;99.90
74384;DHT22;62824;52.994;-3.936;2023-05-02T02:02:34;13.00;99.90
74384;DHT22;62824;52.994;-3.936;2023-05-02T02:05:02;12.80;99.90
74384;DHT22;62824;52.994;-3.936;2023-05-02T02:07:29;12.90;99.90
74384;DHT22;62824;52.994;-3.936;2023-05-02T02:09:55;12.80;99.90
74384;DHT22;62824;52.994;-3.936;2023-05-02T02:14:56;12.40;99.90
74384;DHT22;62824;52.994;-3.936;2023-05-02T02:17:35;12.30;99.90
74384;DHT22;62824;52.994;-3.936;2023-05-02T02:20:05;12.40;99.90
74384;DHT22;62824;52.994;-3.936;2023-05-02T02:22:36;12.10;99.90
74384;DHT22;62824;52.994;-3.936;2023-05-02T02:25:05;12.10;99.90
74384;DHT22;62824;52.994;-3.936;2023-05-02T02:27:32;12.10;99.90
74384;DHT22;62824;52.994;-3.936;2023-05-02T02:29:58;12.20;99.90
74384;DHT22;62824;52.994;-3.936;2023-05-02T02:32:24;12.10;99.90
74384;DHT22;62824;52.994;-3.936;2023-05-02T02:34:50;12.10;99.90
74384;DHT22;62824;52.994;-3.936;2023-05-02T02:37:19;12.20;99.90
74384;DHT22;62824;52.994;-3.936;2023-05-02T02:48:18;12.20;99.90
74384;DHT22;62824;52.994;-3.936;2023-05-02T02:53:33;11.80;99.90
74384;DHT22;62824;52.994;-3.936;2023-05-02T02:56:12;11.70;99.90
74384;DHT22;62824;52.994;-3.936;2023-05-02T02:59:31;11.70;99.90
74384;DHT22;62824;52.994;-3.936;2023-05-02T03:02:08;11.60;99.90
74384;DHT22;62824;52.994;-3.936;2023-05-02T03:04:39;11.60;99.90
74384;DHT22;62824;52.994;-3.936;2023-05-02T03:07:06;11.60;99.90
74384;DHT22;62824;52.994;-3.936;2023-05-02T03:09:42;11.70;99.90
74384;DHT22;62824;52.994;-3.936;2023-05-02T03:12:08;11.80;99.90
74384;DHT22;62824;52.994;-3.936;2023-05-02T03:14:35;11.90;99.90
74384;DHT22;62824;52.994;-3.936;2023-05-02T03:17:02;11.90;99.90
74384;DHT22;62824;52.994;-3.936;2023-05-02T03:19:28;11.90;99.90
74384;DHT22;62824;52.994;-3.936;2023-05-02T03:21:54;11.80;99.90
74384;DHT22;62824;52.994;-3.936;2023-05-02T03:24:20;11.80;99.90
74384;DHT22;62824;52.994;-3.936;2023-05-02T03:26:46;11.70;99.90
74384;DHT22;62824;52.994;-3.936;2023-05-02T03:29:13;11.70;99.90
74384;DHT22;62824;52.994;-3.936;2023-05-02T03:31:39;11.80;99.90
74384;DHT22;62824;52.994;-3.936;2023-05-02T03:34:05;11.80;99.90
74384;DHT22;62824;52.994;-3.936;2023-05-02T03:36:30;11.60;99.90
74384;DHT22;62824;52.994;-3.936;2023-05-02T03:38:56;11.40;99.90
74384;DHT22;62824;52.994;-3.936;2023-05-02T03:41:22;11.30;99.90
74384;DHT22;62824;52.994;-3.936;2023-05-02T03:43:50;11.30;99.90
74384;DHT22;62824;52.994;-3.936;2023-05-02T03:46:15;11.30;99.90
74384;DHT22;62824;52.994;-3.936;2023-05-02T03:48:41;11.20;99.90
74384;DHT22;62824;52.994;-3.936;2023-05-02T03:51:07;11.20;99.90
74384;DHT22;62824;52.994;-3.936;2023-05-02T03:53:34;11.20;99.90
74384;DHT22;62824;52.994;-3.936;2023-05-02T03:56:00;11.20;99.90
74384;DHT22;62824;52.994;-3.936;2023-05-02T03:58:26;11.30;99.90
74384;DHT22;62824;52.994;-3.936;2023-05-02T04:00:52;11.40;99.90
74384;DHT22;62824;52.994;-3.936;2023-05-02T04:03:19;11.50;99.90
74384;DHT22;62824;52.994;-3.936;2023-05-02T04:05:45;11.50;99.90
74384;DHT22;62824;52.994;-3.936;2023-05-02T04:08:11;11.40;99.90
74384;DHT22;62824;52.994;-3.936;2023-05-02T04:10:38;11.30;99.90
74384;DHT22;62824;52.994;-3.936;2023-05-02T04:13:03;11.30;99.90
74384;DHT22;62824;52.994;-3.936;2023-05-02T04:15:32;11.30;99.90
74384;DHT22;62824;52.994;-3.936;2023-05-02T04:17:58;11.20;99.90
74384;DHT22;62824;52.994;-3.936;2023-05-02T04:20:24;11.30;99.90
74384;DHT22;62824;52.994;-3.936;2023-05-02T04:22:50;11.20;99.90
74384;DHT22;62824;52.994;-3.936;2023-05-02T04:25:16;11.20;99.90
74384;DHT22;62824;52.994;-3.936;2023-05-02T04:27:42;11.20;99.90
74384;DHT22;62824;52.994;-3.936;2023-05-02T04:30:09;11.20;99.90
74384;DHT22;62824;52.994;-3.936;2023-05-02T04:32:35;11.20;99.90
74384;DHT22;62824;52.994;-3.936;2023-05-02T04:35:02;11.10;99.90
74384;DHT22;62824;52.994;-3.936;2023-05-02T04:37:28;11.10;99.90
74384;DHT22;62824;52.994;-3.936;2023-05-02T04:39:54;11.10;99.90
74384;DHT22;62824;52.994;-3.936;2023-05-02T04:42:20;11.10;99.90
74384;DHT22;62824;52.994;-3.936;2023-05-02T04:44:47;11.10;99.90
74384;DHT22;62824;52.994;-3.936;2023-05-02T04:47:12;11.10;99.90
74384;DHT22;62824;52.994;-3.936;2023-05-02T04:49:38;11.10;99.90
74384;DHT22;62824;52.994;-3.936;2023-05-02T04:52:04;11.20;99.90
74384;DHT22;62824;52.994;-3.936;2023-05-02T04:54:32;11.30;99.90
74384;DHT22;62824;52.994;-3.936;2023-05-02T04:56:58;11.30;99.90
74384;DHT22;62824;52.994;-3.936;2023-05-02T04:59:24;11.30;99.90
74384;DHT22;62824;52.994;-3.936;2023-05-02T05:01:49;11.20;99.90
74384;DHT22;62824;52.994;-3.936;2023-05-02T05:04:15;11.20;99.90
74384;DHT22;62824;52.994;-3.936;2023-05-02T05:06:41;11.20;99.90
74384;DHT22;62824;52.994;-3.936;2023-05-02T05:09:07;11.30;99.90
74384;DHT22;62824;52.994;-3.936;2023-05-02T05:11:33;11.40;99.90
74384;DHT22;62824;52.994;-3.936;2023-05-02T05:13:58;11.50;99.90
74384;DHT22;62824;52.994;-3.936;2023-05-02T05:16:25;11.50;99.90
74384;DHT22;62824;52.994;-3.936;2023-05-02T05:18:50;11.50;99.90
74384;DHT22;62824;52.994;-3.936;2023-05-02T05:21:18;11.50;99.90
74384;DHT22;62824;52.994;-3.936;2023-05-02T05:23:44;11.50;99.90
74384;DHT22;62824;52.994;-3.936;2023-05-02T05:26:15;11.40;99.90
74384;DHT22;62824;52.994;-3.936;2023-05-02T05:28:41;11.40;99.90
74384;DHT22;62824;52.994;-3.936;2023-05-02T05:31:12;11.50;99.90
74384;DHT22;62824;52.994;-3.936;2023-05-02T05:33:38;11.60;99.90
74384;DHT22;62824;52.994;-3.936;2023-05-02T05:36:09;11.60;99.90
74384;DHT22;62824;52.994;-3.936;2023-05-02T05:38:36;11.60;99.90
74384;DHT22;62824;52.994;-3.936;2023-05-02T05:41:02;11.80;99.90
74384;DHT22;62824;52.994;-3.936;2023-05-02T05:43:29;11.90;99.90
74384;DHT22;62824;52.994;-3.936;2023-05-02T05:45:55;11.90;99.90
74384;DHT22;62824;52.994;-3.936;2023-05-02T05:48:22;11.90;99.90
74384;DHT22;62824;52.994;-3.936;2023-05-02T05:50:47;11.90;99.90
74384;DHT22;62824;52.994;-3.936;2023-05-02T05:53:13;11.90;99.90
74384;DHT22;62824;52.994;-3.936;2023-05-02T05:55:40;12.00;99.90
74384;DHT22;62824;52.994;-3.936;2023-05-02T05:58:07;12.00;99.90
74384;DHT22;62824;52.994;-3.936;2023-05-02T06:00:36;12.00;99.90
74384;DHT22;62824;52.994;-3.936;2023-05-02T06:03:03;11.80;99.90
74384;DHT22;62824;52.994;-3.936;2023-05-02T06:05:29;11.70;99.90
74384;DHT22;62824;52.994;-3.936;2023-05-02T06:07:58;11.70;99.90
74384;DHT22;62824;52.994;-3.936;2023-05-02T06:10:24;11.70;99.90
74384;DHT22;62824;52.994;-3.936;2023-05-02T06:12:50;11.70;99.90
74384;DHT22;62824;52.994;-3.936;2023-05-02T06:15:16;11.60;99.90
74384;DHT22;62824;52.994;-3.936;2023-05-02T06:17:42;11.50;99.90
74384;DHT22;62824;52.994;-3.936;2023-05-02T06:20:08;11.50;99.90
74384;DHT22;62824;52.994;-3.936;2023-05-02T06:22:35;11.50;99.90
74384;DHT22;62824;52.994;-3.936;2023-05-02T06:25:01;11.50;99.90
74384;DHT22;62824;52.994;-3.936;2023-05-02T06:27:27;11.60;99.90
74384;DHT22;62824;52.994;-3.936;2023-05-02T06:29:53;11.60;99.90
74384;DHT22;62824;52.994;-3.936;2023-05-02T06:32:19;11.60;99.90
74384;DHT22;62824;52.994;-3.936;2023-05-02T06:34:44;11.70;99.90
74384;DHT22;62824;52.994;-3.936;2023-05-02T06:37:10;11.70;99.90
74384;DHT22;62824;52.994;-3.936;2023-05-02T06:39:36;11.70;99.90
74384;DHT22;62824;52.994;-3.936;2023-05-02T06:42:02;11.80;99.90
74384;DHT22;62824;52.994;-3.936;2023-05-02T06:44:28;12.20;99.90
74384;DHT22;62824;52.994;-3.936;2023-05-02T06:46:54;12.80;99.90
74384;DHT22;62824;52.994;-3.936;2023-05-02T06:49:21;13.40;99.90
74384;DHT22;62824;52.994;-3.936;2023-05-02T06:51:47;13.70;99.90
74384;DHT22;62824;52.994;-3.936;2023-05-02T06:54:12;14.10;99.90
74384;DHT22;62824;52.994;-3.936;2023-05-02T06:56:40;14.60;99.90
74384;DHT22;62824;52.994;-3.936;2023-05-02T06:59:06;14.80;99.90
74384;DHT22;62824;52.994;-3.936;2023-05-02T07:01:32;15.10;99.90
74384;DHT22;62824;52.994;-3.936;2023-05-02T07:03:58;15.40;99.90
74384;DHT22;62824;52.994;-3.936;2023-05-02T07:06:23;15.70;94.30
74384;DHT22;62824;52.994;-3.936;2023-05-02T07:08:49;15.60;91.30
74384;DHT22;62824;52.994;-3.936;2023-05-02T07:11:15;15.70;87.70
74384;DHT22;62824;52.994;-3.936;2023-05-02T07:13:42;15.70;84.90
74384;DHT22;62824;52.994;-3.936;2023-05-02T07:16:08;15.80;84.40
74384;DHT22;62824;52.994;-3.936;2023-05-02T07:18:33;16.10;71.50
74384;DHT22;62824;52.994;-3.936;2023-05-02T07:20:59;16.30;67.80
74384;DHT22;62824;52.994;-3.936;2023-05-02T07:23:26;16.70;60.50
74384;DHT22;62824;52.994;-3.936;2023-05-02T07:25:51;17.00;56.00
74384;DHT22;62824;52.994;-3.936;2023-05-02T07:28:17;17.50;49.60
74384;DHT22;62824;52.994;-3.936;2023-05-02T07:30:43;17.90;45.90
74384;DHT22;62824;52.994;-3.936;2023-05-02T07:33:09;18.10;40.90
74384;DHT22;62824;52.994;-3.936;2023-05-02T07:35:34;18.30;38.20
74384;DHT22;62824;52.994;-3.936;2023-05-02T07:38:00;18.30;38.10
74384;DHT22;62824;52.994;-3.936;2023-05-02T07:40:26;18.00;38.90
74384;DHT22;62824;52.994;-3.936;2023-05-02T07:42:52;17.80;41.00
74384;DHT22;62824;52.994;-3.936;2023-05-02T07:45:18;17.30;44.80
74384;DHT22;62824;52.994;-3.936;2023-05-02T07:47:45;17.30;46.60
74384;DHT22;62824;52.994;-3.936;2023-05-02T07:50:11;17.30;45.60
74384;DHT22;62824;52.994;-3.936;2023-05-02T07:52:37;17.20;46.70
74384;DHT22;62824;52.994;-3.936;2023-05-02T07:55:03;16.70;53.30
74384;DHT22;62824;52.994;-3.936;2023-05-02T07:57:29;16.90;53.30
74384;DHT22;62824;52.994;-3.936;2023-05-02T07:59:55;17.00;51.00
74384;DHT22;62824;52.994;-3.936;2023-05-02T08:02:21;17.10;50.10
74384;DHT22;62824;52.994;-3.936;2023-05-02T08:04:48;17.00;49.80
74384;DHT22;62824;52.994;-3.936;2023-05-02T08:07:14;16.70;54.10
74384;DHT22;62824;52.994;-3.936;2023-05-02T08:09:40;16.90;55.90
74384;DHT22;62824;52.994;-3.936;2023-05-02T08:12:06;16.90;51.10
74384;DHT22;62824;52.994;-3.936;2023-05-02T08:14:32;17.20;51.50
74384;DHT22;62824;52.994;-3.936;2023-05-02T08:16:59;17.40;49.50
74384;DHT22;62824;52.994;-3.936;2023-05-02T08:19:25;17.40;47.80
74384;DHT22;62824;52.994;-3.936;2023-05-02T08:21:53;17.30;48.50
74384;DHT22;62824;52.994;-3.936;2023-05-02T08:24:19;16.60;53.80
74384;DHT22;62824;52.994;-3.936;2023-05-02T08:26:44;16.70;57.80
74384;DHT22;62824;52.994;-3.936;2023-05-02T08:29:10;16.80;56.60
74384;DHT22;62824;52.994;-3.936;2023-05-02T08:31:39;17.10;54.40
74384;DHT22;62824;52.994;-3.936;2023-05-02T08:34:05;17.10;50.30
74384;DHT22;62824;52.994;-3.936;2023-05-02T08:36:31;17.30;48.00
74384;DHT22;62824;52.994;-3.936;2023-05-02T08:38:57;17.40;46.80
74384;DHT22;62824;52.994;-3.936;2023-05-02T08:41:23;17.00;49.20
74384;DHT22;62824;52.994;-3.936;2023-05-02T08:43:49;17.00;52.50
74384;DHT22;62824;52.994;-3.936;2023-05-02T08:46:16;17.20;48.50
74384;DHT22;62824;52.994;-3.936;2023-05-02T08:48:44;17.40;46.30
74384;DHT22;62824;52.994;-3.936;2023-05-02T08:51:16;17.40;48.60
74384;DHT22;62824;52.994;-3.936;2023-05-02T08:53:42;17.70;45.30
74384;DHT22;62824;52.994;-3.936;2023-05-02T08:56:09;17.20;41.80
74384;DHT22;62824;52.994;-3.936;2023-05-02T08:58:38;17.00;46.70
74384;DHT22;62824;52.994;-3.936;2023-05-02T09:01:18;17.00;49.70
74384;DHT22;62824;52.994;-3.936;2023-05-02T09:03:47;16.90;51.10
74384;DHT22;62824;52.994;-3.936;2023-05-02T09:08:44;16.20;61.80
74384;DHT22;62824;52.994;-3.936;2023-05-02T09:11:11;16.10;61.10
74384;DHT22;62824;52.994;-3.936;2023-05-02T09:13:45;16.30;65.80
74384;DHT22;62824;52.994;-3.936;2023-05-02T09:16:13;16.80;57.70
74384;DHT22;62824;52.994;-3.936;2023-05-02T09:18:45;17.20;54.50
74384;DHT22;62824;52.994;-3.936;2023-05-02T09:21:16;17.20;46.90
74384;DHT22;62824;52.994;-3.936;2023-05-02T09:23:42;16.30;55.80
74384;DHT22;62824;52.994;-3.936;2023-05-02T09:26:23;16.30;59.70
74384;DHT22;62824;52.994;-3.936;2023-05-02T09:29:12;16.70;59.40
74384;DHT22;62824;52.994;-3.936;2023-05-02T09:31:46;16.80;54.10
74384;DHT22;62824;52.994;-3.936;2023-05-02T09:34:16;16.90;51.60
74384;DHT22;62824;52.994;-3.936;2023-05-02T09:36:43;16.60;57.40
74384;DHT22;62824;52.994;-3.936;2023-05-02T09:39:17;16.50;58.10
74384;DHT22;62824;52.994;-3.936;2023-05-02T09:41:49;16.20;65.80
74384;DHT22;62824;52.994;-3.936;2023-05-02T09:44:22;16.40;61.80
74384;DHT22;62824;52.994;-3.936;2023-05-02T09:46:53;16.50;57.90
74384;DHT22;62824;52.994;-3.936;2023-05-02T09:49:43;16.40;61.50
74384;DHT22;62824;52.994;-3.936;2023-05-02T09:52:16;16.60;61.10
74384;DHT22;62824;52.994;-3.936;2023-05-02T09:54:43;16.70;54.40
74384;DHT22;62824;52.994;-3.936;2023-05-02T09:57:12;16.90;49.70
74384;DHT22;62824;52.994;-3.936;2023-05-02T09:59:39;16.70;51.00
74384;DHT22;62824;52.994;-3.936;2023-05-02T10:02:06;16.80;51.30
74384;DHT22;62824;52.994;-3.936;2023-05-02T10:04:34;17.10;48.00
74384;DHT22;62824;52.994;-3.936;2023-05-02T10:07:01;17.20;46.70
74384;DHT22;62824;52.994;-3.936;2023-05-02T10:09:28;17.40;43.10
74384;DHT22;62824;52.994;-3.936;2023-05-02T10:12:00;17.60;41.40
74384;DHT22;62824;52.994;-3.936;2023-05-02T10:14:31;17.60;39.50
74384;DHT22;62824;52.994;-3.936;2023-05-02T10:17:00;17.70;38.30
74384;DHT22;62824;52.994;-3.936;2023-05-02T10:19:30;17.70;36.70
74384;DHT22;62824;52.994;-3.936;2023-05-02T10:21:57;17.60;36.20
74384;DHT22;62824;52.994;-3.936;2023-05-02T10:24:24;17.70;36.20
74384;DHT22;62824;52.994;-3.936;2023-05-02T10:26:56;17.70;35.00
74384;DHT22;62824;52.994;-3.936;2023-05-02T10:29:46;18.00;33.60
74384;DHT22;62824;52.994;-3.936;2023-05-02T10:32:17;17.90;32.90
74384;DHT22;62824;52.994;-3.936;2023-05-02T10:34:45;17.20;32.90
74384;DHT22;62824;52.994;-3.936;2023-05-02T10:37:16;17.20;35.20
74384;DHT22;62824;52.994;-3.936;2023-05-02T10:39:43;17.20;34.30
74384;DHT22;62824;52.994;-3.936;2023-05-02T10:42:19;17.00;32.40
74384;DHT22;62824;52.994;-3.936;2023-05-02T10:44:46;16.70;34.30
74384;DHT22;62824;52.994;-3.936;2023-05-02T10:47:25;16.70;34.90
74384;DHT22;62824;52.994;-3.936;2023-05-02T10:49:52;16.60;34.90
74384;DHT22;62824;52.994;-3.936;2023-05-02T10:52:35;16.30;35.60
74384;DHT22;62824;52.994;-3.936;2023-05-02T10:55:17;16.40;35.30
74384;DHT22;62824;52.994;-3.936;2023-05-02T11:00:29;17.60;31.80
74384;DHT22;62824;52.994;-3.936;2023-05-02T11:02:55;17.70;29.40
74384;DHT22;62824;52.994;-3.936;2023-05-02T11:05:22;17.80;29.70
74384;DHT22;62824;52.994;-3.936;2023-05-02T11:07:49;18.10;29.90
74384;DHT22;62824;52.994;-3.936;2023-05-02T11:12:54;17.60;29.50
74384;DHT22;62824;52.994;-3.936;2023-05-02T11:20:26;17.10;30.60
74384;DHT22;62824;52.994;-3.936;2023-05-02T11:22:53;17.20;30.80
74384;DHT22;62824;52.994;-3.936;2023-05-02T11:25:36;17.30;33.30
74384;DHT22;62824;52.994;-3.936;2023-05-02T11:28:05;17.50;34.90
74384;DHT22;62824;52.994;-3.936;2023-05-02T11:30:38;16.90;39.30
74384;DHT22;62824;52.994;-3.936;2023-05-02T11:35:30;17.30;37.20
74384;DHT22;62824;52.994;-3.936;2023-05-02T11:38:18;17.50;35.10
74384;DHT22;62824;52.994;-3.936;2023-05-02T11:40:54;17.30;33.70
74384;DHT22;62824;52.994;-3.936;2023-05-02T11:43:21;17.30;34.50
74384;DHT22;62824;52.994;-3.936;2023-05-02T11:45:48;17.20;34.70
74384;DHT22;62824;52.994;-3.936;2023-05-02T11:48:18;16.90;36.50
74384;DHT22;62824;52.994;-3.936;2023-05-02T11:50:45;16.80;38.30
74384;DHT22;62824;52.994;-3.936;2023-05-02T11:53:12;16.50;41.00
74384;DHT22;62824;52.994;-3.936;2023-05-02T11:55:48;16.70;45.50
74384;DHT22;62824;52.994;-3.936;2023-05-02T11:58:15;16.90;44.20
74384;DHT22;62824;52.994;-3.936;2023-05-02T12:00:42;17.10;38.10
74384;DHT22;62824;52.994;-3.936;2023-05-02T12:03:21;17.10;38.40
74384;DHT22;62824;52.994;-3.936;2023-05-02T12:05:47;17.10;37.20
74384;DHT22;62824;52.994;-3.936;2023-05-02T12:10:49;17.10;41.60
74384;DHT22;62824;52.994;-3.936;2023-05-02T12:13:16;17.40;38.50
74384;DHT22;62824;52.994;-3.936;2023-05-02T12:15:42;17.20;37.80
74384;DHT22;62824;52.994;-3.936;2023-05-02T12:18:08;17.30;38.40
74384;DHT22;62824;52.994;-3.936;2023-05-02T12:20:35;17.40;36.60
74384;DHT22;62824;52.994;-3.936;2023-05-02T12:23:04;17.40;38.70
74384;DHT22;62824;52.994;-3.936;2023-05-02T12:25:35;17.50;39.00
74384;DHT22;62824;52.994;-3.936;2023-05-02T12:28:01;17.50;39.20
74384;DHT22;62824;52.994;-3.936;2023-05-02T12:30:28;17.60;39.40
74384;DHT22;62824;52.994;-3.936;2023-05-02T12:32:59;17.80;39.70
74384;DHT22;62824;52.994;-3.936;2023-05-02T12:35:27;17.80;39.00
74384;DHT22;62824;52.994;-3.936;2023-05-02T12:37:53;18.00;37.70
74384;DHT22;62824;52.994;-3.936;2023-05-02T12:40:20;18.20;35.90
74384;DHT22;62824;52.994;-3.936;2023-05-02T12:42:59;17.70;33.50
74384;DHT22;62824;52.994;-3.936;2023-05-02T12:45:31;17.60;36.90
74384;DHT22;62824;52.994;-3.936;2023-05-02T12:50:45;18.00;33.20
74384;DHT22;62824;52.994;-3.936;2023-05-02T12:53:12;17.90;31.30
74384;DHT22;62824;52.994;-3.936;2023-05-02T12:55:37;18.30;31.20
74384;DHT22;62824;52.994;-3.936;2023-05-02T12:58:05;18.90;30.20
74384;DHT22;62824;52.994;-3.936;2023-05-02T13:00:33;19.10;30.50
74384;DHT22;62824;52.994;-3.936;2023-05-02T13:02:59;18.90;30.60
74384;DHT22;62824;52.994;-3.936;2023-05-02T13:05:25;19.30;30.10
74384;DHT22;62824;52.994;-3.936;2023-05-02T13:07:51;19.40;29.40
74384;DHT22;62824;52.994;-3.936;2023-05-02T13:10:18;19.30;27.50
74384;DHT22;62824;52.994;-3.936;2023-05-02T13:12:44;19.20;28.90
74384;DHT22;62824;52.994;-3.936;2023-05-02T13:15:11;20.00;27.00
74384;DHT22;62824;52.994;-3.936;2023-05-02T13:17:37;20.40;26.10
74384;DHT22;62824;52.994;-3.936;2023-05-02T13:20:03;20.10;25.60
74384;DHT22;62824;52.994;-3.936;2023-05-02T13:22:29;20.20;26.20
74384;DHT22;62824;52.994;-3.936;2023-05-02T13:24:55;19.90;25.30
74384;DHT22;62824;52.994;-3.936;2023-05-02T13:27:24;19.70;26.80
74384;DHT22;62824;52.994;-3.936;2023-05-02T13:29:51;19.80;27.90
74384;DHT22;62824;52.994;-3.936;2023-05-02T13:32:17;19.90;27.90
74384;DHT22;62824;52.994;-3.936;2023-05-02T13:34:43;19.70;28.30
74384;DHT22;62824;52.994;-3.936;2023-05-02T13:37:10;19.70;28.60
74384;DHT22;62824;52.994;-3.936;2023-05-02T13:39:35;19.50;28.50
74384;DHT22;62824;52.994;-3.936;2023-05-02T13:42:01;19.70;29.10
74384;DHT22;62824;52.994;-3.936;2023-05-02T13:44:29;19.70;28.10
74384;DHT22;62824;52.994;-3.936;2023-05-02T13:46:54;18.80;28.80
74384;DHT22;62824;52.994;-3.936;2023-05-02T13:49:20;18.70;29.90
74384;DHT22;62824;52.994;-3.936;2023-05-02T13:51:46;18.70;30.70
74384;DHT22;62824;52.994;-3.936;2023-05-02T13:54:12;19.00;29.50
74384;DHT22;62824;52.994;-3.936;2023-05-02T13:56:38;19.10;29.60
74384;DHT22;62824;52.994;-3.936;2023-05-02T13:59:05;19.10;29.10
74384;DHT22;62824;52.994;-3.936;2023-05-02T14:01:31;19.10;28.10
74384;DHT22;62824;52.994;-3.936;2023-05-02T14:03:57;19.40;27.60
74384;DHT22;62824;52.994;-3.936;2023-05-02T14:06:23;19.70;27.00
74384;DHT22;62824;52.994;-3.936;2023-05-02T14:08:49;20.30;25.80
74384;DHT22;62824;52.994;-3.936;2023-05-02T14:11:18;20.40;25.80
74384;DHT22;62824;52.994;-3.936;2023-05-02T14:13:43;20.60;24.10
74384;DHT22;62824;52.994;-3.936;2023-05-02T14:16:10;19.90;25.50
74384;DHT22;62824;52.994;-3.936;2023-05-02T14:18:36;20.00;26.00
74384;DHT22;62824;52.994;-3.936;2023-05-02T14:21:01;20.60;25.00
74384;DHT22;62824;52.994;-3.936;2023-05-02T14:23:27;20.40;24.20
74384;DHT22;62824;52.994;-3.936;2023-05-02T14:25:54;20.50;24.40
74384;DHT22;62824;52.994;-3.936;2023-05-02T14:28:20;21.30;23.20
74384;DHT22;62824;52.994;-3.936;2023-05-02T14:30:50;21.20;21.90
74384;DHT22;62824;52.994;-3.936;2023-05-02T14:33:16;21.10;23.00
74384;DHT22;62824;52.994;-3.936;2023-05-02T14:35:42;20.90;22.30
74384;DHT22;62824;52.994;-3.936;2023-05-02T14:38:07;21.10;22.40
74384;DHT22;62824;52.994;-3.936;2023-05-02T14:40:33;21.40;20.70
74384;DHT22;62824;52.994;-3.936;2023-05-02T14:42:59;21.40;20.60
74384;DHT22;62824;52.994;-3.936;2023-05-02T14:45:26;21.50;20.60
74384;DHT22;62824;52.994;-3.936;2023-05-02T14:47:51;21.30;21.20
74384;DHT22;62824;52.994;-3.936;2023-05-02T14:50:17;21.10;20.40
74384;DHT22;62824;52.994;-3.936;2023-05-02T14:52:43;21.40;21.00
74384;DHT22;62824;52.994;-3.936;2023-05-02T14:55:12;20.90;21.20
74384;DHT22;62824;52.994;-3.936;2023-05-02T14:57:37;21.20;21.60
74384;DHT22;62824;52.994;-3.936;2023-05-02T15:00:04;21.40;20.50
74384;DHT22;62824;52.994;-3.936;2023-05-02T15:02:33;21.40;20.50
74384;DHT22;62824;52.994;-3.936;2023-05-02T15:04:58;20.90;21.50
74384;DHT22;62824;52.994;-3.936;2023-05-02T15:07:24;20.70;21.90
74384;DHT22;62824;52.994;-3.936;2023-05-02T15:09:51;20.70;22.60
74384;DHT22;62824;52.994;-3.936;2023-05-02T15:12:17;20.80;22.60
74384;DHT22;62824;52.994;-3.936;2023-05-02T15:14:42;20.80;22.10
74384;DHT22;62824;52.994;-3.936;2023-05-02T15:17:08;21.00;22.20
74384;DHT22;62824;52.994;-3.936;2023-05-02T15:19:34;21.10;21.30
74384;DHT22;62824;52.994;-3.936;2023-05-02T15:22:00;21.20;21.30
74384;DHT22;62824;52.994;-3.936;2023-05-02T15:24:26;21.50;21.10
74384;DHT22;62824;52.994;-3.936;2023-05-02T15:26:52;21.60;20.80
74384;DHT22;62824;52.994;-3.936;2023-05-02T15:29:18;21.70;20.30
74384;DHT22;62824;52.994;-3.936;2023-05-02T15:31:44;21.40;20.40
74384;DHT22;62824;52.994;-3.936;2023-05-02T15:34:09;21.50;20.60
74384;DHT22;62824;52.994;-3.936;2023-05-02T15:36:35;21.50;21.10
74384;DHT22;62824;52.994;-3.936;2023-05-02T15:39:05;21.30;21.40
74384;DHT22;62824;52.994;-3.936;2023-05-02T15:41:31;21.50;21.20
74384;DHT22;62824;52.994;-3.936;2023-05-02T15:43:58;21.60;21.10
74384;DHT22;62824;52.994;-3.936;2023-05-02T15:46:24;21.60;20.90
74384;DHT22;62824;52.994;-3.936;2023-05-02T15:48:50;21.30;19.90
74384;DHT22;62824;52.994;-3.936;2023-05-02T15:51:16;21.30;20.60
74384;DHT22;62824;52.994;-3.936;2023-05-02T15:53:42;21.10;20.80
74384;DHT22;62824;52.994;-3.936;2023-05-02T15:56:10;20.80;21.40
74384;DHT22;62824;52.994;-3.936;2023-05-02T15:58:37;20.20;22.40
74384;DHT22;62824;52.994;-3.936;2023-05-02T16:01:03;19.70;23.90
74384;DHT22;62824;52.994;-3.936;2023-05-02T16:03:29;19.30;24.50
74384;DHT22;62824;52.994;-3.936;2023-05-02T16:05:56;19.40;25.40